createdAt,value
2022-11-17T00:00:42.126Z,13.40
2022-11-17T00:03:15.328Z,13.81
2022-11-17T00:05:42.225Z,13.37
2022-11-17T00:08:08.646Z,13.90
2022-11-17T00:10:35.026Z,13.44
2022-11-17T00:13:20.026Z,13.00
2022-11-17T00:15:46.491Z,13.46
2022-11-17T00:18:31.459Z,13.14
2022-11-17T00:21:16.766Z,13.60
2022-11-17T00:23:49.710Z,13.55
2022-11-17T00:26:18.592Z,13.56
2022-11-17T00:28:45.104Z,12.94
2022-11-17T00:31:33.741Z,12.99
2022-11-17T00:34:06.389Z,13.00
2022-11-17T00:36:33.024Z,13.68
2022-11-17T00:38:59.368Z,13.42
2022-11-17T00:41:25.786Z,13.13
2022-11-17T00:43:52.223Z,13.30
2022-11-17T00:46:18.613Z,13.38
2022-11-17T00:48:44.970Z,13.44
2022-11-17T00:51:11.430Z,12.97
2022-11-17T00:53:38.008Z,13.09
2022-11-17T00:56:04.562Z,13.27
2022-11-17T00:58:31.030Z,13.29
2022-11-17T01:00:57.662Z,13.28
2022-11-17T01:03:24.033Z,12.82
2022-11-17T01:05:51.298Z,12.85
2022-11-17T01:08:17.637Z,13.26
2022-11-17T01:10:44.088Z,12.99
2022-11-17T01:13:10.493Z,13.36
2022-11-17T01:15:36.883Z,12.94
2022-11-17T01:18:03.539Z,13.65
2022-11-17T01:20:29.928Z,13.59
2022-11-17T01:22:56.311Z,13.39
2022-11-17T01:25:22.701Z,12.39
2022-11-17T01:27:49.089Z,13.47
2022-11-17T01:30:17.708Z,12.88
2022-11-17T01:32:44.739Z,12.82
2022-11-17T01:35:11.192Z,13.12
2022-11-17T01:37:37.615Z,13.43
2022-11-17T01:40:04.566Z,12.96
2022-11-17T01:42:31.586Z,13.44
2022-11-17T01:45:01.435Z,13.31
2022-11-17T01:47:36.947Z,13.70
2022-11-17T01:50:30.208Z,13.60
2022-11-17T01:53:00.650Z,13.20
2022-11-17T01:55:40.056Z,13.65
2022-11-17T01:58:11.620Z,13.66
2022-11-17T02:00:38.033Z,13.08
2022-11-17T02:03:07.096Z,13.67
2022-11-17T02:05:58.724Z,13.84
2022-11-17T02:08:28.985Z,13.84
2022-11-17T02:10:55.618Z,13.63
2022-11-17T02:13:23.195Z,13.51
2022-11-17T02:15:49.596Z,13.52
2022-11-17T02:18:17.084Z,13.65
2022-11-17T02:20:51.577Z,13.69
2022-11-17T02:23:20.616Z,13.66
2022-11-17T02:25:59.188Z,13.52
2022-11-17T02:28:36.180Z,13.60
2022-11-17T02:31:33.652Z,13.67
2022-11-17T02:34:23.234Z,13.64
2022-11-17T02:37:02.686Z,13.34
2022-11-17T02:39:40.232Z,12.95
2022-11-17T02:42:17.102Z,13.51
2022-11-17T02:45:05.494Z,12.92
2022-11-17T02:47:34.512Z,13.09
2022-11-17T02:50:06.931Z,13.32
2022-11-17T02:52:33.950Z,13.60
2022-11-17T02:55:02.666Z,13.52
2022-11-17T02:57:40.316Z,13.50
2022-11-17T03:00:20.461Z,13.03
2022-11-17T03:02:53.060Z,13.46
2022-11-17T03:05:37.687Z,13.30
2022-11-17T03:08:13.232Z,13.51
2022-11-17T03:11:06.189Z,13.32
2022-11-17T03:13:52.178Z,13.51
2022-11-17T03:16:38.276Z,13.35
2022-11-17T03:19:10.730Z,13.55
2022-11-17T03:22:08.003Z,13.56
2022-11-17T03:24:39.858Z,13.45
2022-11-17T03:27:11.899Z,13.43
2022-11-17T03:29:43.007Z,13.23
2022-11-17T03:32:11.729Z,13.15
2022-11-17T03:34:44.034Z,13.71
2022-11-17T03:37:13.841Z,13.18
2022-11-17T03:39:44.947Z,13.58
2022-11-17T03:42:23.383Z,13.85
2022-11-17T03:44:55.528Z,13.41
2022-11-17T03:47:26.396Z,13.74
2022-11-17T03:50:05.765Z,13.82
2022-11-17T03:52:34.658Z,13.13
2022-11-17T03:55:02.471Z,13.12
2022-11-17T03:57:41.755Z,13.94
2022-11-17T04:00:14.221Z,13.63
2022-11-17T04:02:43.077Z,13.98
2022-11-17T04:05:10.787Z,14.06
2022-11-17T04:07:42.519Z,13.23
2022-11-17T04:10:11.927Z,13.41
2022-11-17T04:12:58.555Z,13.13
2022-11-17T04:15:44.528Z,13.92
2022-11-17T04:18:10.962Z,13.85
2022-11-17T04:20:37.512Z,14.01
2022-11-17T04:23:08.120Z,13.60
2022-11-17T04:26:05.483Z,14.05
2022-11-17T04:28:39.539Z,13.88
2022-11-17T04:31:14.935Z,14.11
2022-11-17T04:33:47.086Z,13.92
2022-11-17T04:36:17.349Z,13.69
2022-11-17T04:38:48.518Z,13.85
2022-11-17T04:41:35.065Z,13.94
2022-11-17T04:44:02.114Z,13.73
2022-11-17T04:46:31.052Z,13.45
2022-11-17T04:48:58.386Z,13.67
2022-11-17T04:51:25.843Z,13.54
2022-11-17T04:53:52.634Z,13.56
2022-11-17T04:56:20.605Z,13.58
2022-11-17T04:58:47.879Z,13.13
2022-11-17T05:01:16.473Z,12.97
2022-11-17T05:04:12.714Z,13.58
2022-11-17T05:06:42.318Z,12.87
2022-11-17T05:09:11.646Z,13.57
2022-11-17T05:11:56.639Z,13.27
2022-11-17T05:14:24.529Z,13.32
2022-11-17T05:17:11.377Z,13.42
2022-11-17T05:19:40.362Z,13.39
2022-11-17T05:22:28.647Z,13.40
2022-11-17T05:24:55.826Z,13.22
2022-11-17T05:27:23.471Z,13.33
2022-11-17T05:29:49.914Z,13.54
2022-11-17T05:32:16.765Z,13.37
2022-11-17T05:34:43.154Z,13.46
2022-11-17T05:37:09.564Z,12.79
2022-11-17T05:39:36.386Z,13.43
2022-11-17T05:42:03.352Z,12.61
2022-11-17T05:44:29.764Z,12.73
2022-11-17T05:46:56.096Z,13.20
2022-11-17T05:49:22.554Z,13.58
2022-11-17T05:51:52.700Z,13.24
2022-11-17T05:54:19.884Z,13.46
2022-11-17T05:56:49.311Z,13.65
2022-11-17T05:59:27.738Z,13.51
2022-11-17T06:02:04.639Z,13.60
2022-11-17T06:04:32.387Z,13.61
2022-11-17T06:07:00.446Z,13.29
2022-11-17T06:09:38.424Z,13.45
2022-11-17T06:12:06.404Z,13.76
2022-11-17T06:14:34.329Z,13.78
2022-11-17T06:17:05.294Z,13.62
2022-11-17T06:19:36.954Z,13.78
2022-11-17T06:22:12.275Z,13.62
2022-11-17T06:24:45.196Z,13.38
2022-11-17T06:27:17.517Z,13.68
2022-11-17T06:29:48.590Z,13.74
2022-11-17T06:32:17.626Z,13.77
2022-11-17T06:34:51.945Z,13.66
2022-11-17T06:37:22.099Z,13.86
2022-11-17T06:39:48.501Z,13.04
2022-11-17T06:42:14.831Z,13.46
2022-11-17T06:44:41.200Z,13.80
2022-11-17T06:47:07.715Z,12.71
2022-11-17T06:49:34.194Z,13.42
2022-11-17T06:52:00.699Z,13.68
2022-11-17T06:54:27.168Z,13.09
2022-11-17T06:56:55.248Z,13.12
2022-11-17T06:59:21.708Z,13.35
2022-11-17T07:01:51.461Z,13.21
2022-11-17T07:04:17.998Z,12.99
2022-11-17T07:06:44.454Z,13.23
2022-11-17T07:09:10.759Z,12.84
2022-11-17T07:11:37.491Z,12.72
2022-11-17T07:14:03.994Z,12.69
2022-11-17T07:16:32.404Z,13.20
2022-11-17T07:18:59.279Z,12.32
2022-11-17T07:21:26.125Z,12.68
2022-11-17T07:23:52.494Z,13.23
2022-11-17T07:26:19.378Z,12.40
2022-11-17T07:28:45.770Z,12.06
2022-11-17T07:31:12.461Z,13.11
2022-11-17T07:33:39.048Z,12.38
2022-11-17T07:36:11.033Z,12.68
2022-11-17T07:38:39.672Z,12.34
2022-11-17T07:41:07.961Z,13.07
2022-11-17T07:43:35.879Z,12.46
2022-11-17T07:46:08.974Z,13.08
2022-11-17T07:48:35.853Z,12.52
2022-11-17T07:51:04.359Z,12.55
2022-11-17T07:53:32.407Z,11.97
2022-11-17T07:56:07.510Z,12.36
2022-11-17T07:58:34.549Z,13.21
2022-11-17T08:01:19.657Z,13.04
2022-11-17T08:03:46.365Z,12.40
2022-11-17T08:06:13.139Z,12.57
2022-11-17T08:08:52.989Z,12.70
2022-11-17T08:11:34.230Z,12.55
2022-11-17T08:14:01.202Z,11.90
2022-11-17T08:16:30.624Z,12.44
2022-11-17T08:18:57.762Z,12.69
2022-11-17T08:21:24.559Z,12.73
2022-11-17T08:23:52.872Z,13.09
2022-11-17T08:26:20.771Z,13.08
2022-11-17T08:28:48.297Z,13.29
2022-11-17T08:31:16.623Z,12.82
2022-11-17T08:33:43.721Z,12.63
2022-11-17T08:36:10.162Z,13.44
2022-11-17T08:38:37.358Z,13.35
2022-11-17T08:41:11.586Z,12.83
2022-11-17T08:43:38.103Z,12.83
2022-11-17T08:46:04.706Z,13.52
2022-11-17T08:48:31.800Z,13.61
2022-11-17T08:50:58.905Z,13.76
2022-11-17T08:53:46.430Z,13.00
2022-11-17T08:56:13.106Z,13.78
2022-11-17T08:58:43.829Z,13.15
2022-11-17T09:01:12.165Z,12.74
2022-11-17T09:03:38.701Z,12.93
2022-11-17T09:06:05.891Z,12.45
2022-11-17T09:08:48.123Z,13.18
2022-11-17T09:11:22.434Z,12.84
2022-11-17T09:13:48.964Z,12.90
2022-11-17T09:16:17.089Z,13.45
2022-11-17T09:18:47.788Z,12.72
2022-11-17T09:21:15.694Z,13.13
2022-11-17T09:23:45.073Z,12.84
2022-11-17T09:26:16.340Z,13.43
2022-11-17T09:28:44.306Z,13.31
2022-11-17T09:31:16.916Z,14.05
2022-11-17T09:33:43.886Z,14.15
2022-11-17T09:36:11.938Z,13.94
2022-11-17T09:38:39.637Z,14.22
2022-11-17T09:41:19.036Z,13.31
2022-11-17T09:44:03.543Z,13.26
2022-11-17T09:46:50.916Z,13.65
2022-11-17T09:49:30.276Z,14.32
2022-11-17T09:52:02.717Z,14.30
2022-11-17T09:54:46.561Z,13.18
2022-11-17T09:57:21.379Z,14.08
2022-11-17T10:00:02.308Z,14.01
2022-11-17T10:02:29.335Z,14.14
2022-11-17T10:04:56.213Z,13.96
2022-11-17T10:07:23.184Z,14.37
2022-11-17T10:09:54.031Z,14.64
2022-11-17T10:12:26.415Z,15.02
2022-11-17T10:14:54.318Z,14.19
2022-11-17T10:17:20.734Z,14.51
2022-11-17T10:19:47.238Z,13.63
2022-11-17T10:22:36.320Z,14.79
2022-11-17T10:25:05.464Z,14.32
2022-11-17T10:27:34.242Z,14.39
2022-11-17T10:30:19.060Z,14.59
2022-11-17T10:32:54.271Z,14.37
2022-11-17T10:35:23.953Z,14.95
2022-11-17T10:37:57.987Z,14.80
2022-11-17T10:40:29.603Z,14.75
2022-11-17T10:43:14.310Z,14.98
2022-11-17T10:45:44.937Z,15.12
2022-11-17T10:48:26.521Z,14.91
2022-11-17T10:51:13.275Z,14.75
2022-11-17T10:53:46.566Z,15.06
2022-11-17T10:56:22.822Z,14.56
2022-11-17T10:58:55.533Z,14.69
2022-11-17T11:01:29.611Z,14.20
2022-11-17T11:03:56.181Z,14.51
2022-11-17T11:06:26.701Z,13.80
2022-11-17T11:09:09.951Z,14.85
2022-11-17T11:11:54.118Z,14.33
2022-11-17T11:14:54.536Z,15.07
2022-11-17T11:17:20.964Z,14.28
2022-11-17T11:19:54.374Z,14.03
2022-11-17T11:23:03.379Z,14.79
2022-11-17T11:25:40.873Z,15.37
2022-11-17T11:28:22.524Z,14.89
2022-11-17T11:31:10.867Z,15.64
2022-11-17T11:33:42.645Z,15.54
2022-11-17T11:36:22.743Z,15.46
2022-11-17T11:38:56.469Z,15.59
2022-11-17T11:41:56.269Z,15.31
2022-11-17T11:44:22.568Z,15.46
2022-11-17T11:47:33.459Z,15.22
2022-11-17T11:50:17.913Z,15.16
2022-11-17T11:53:13.267Z,15.10
2022-11-17T11:55:41.879Z,14.14
2022-11-17T11:58:24.746Z,14.93
2022-11-17T12:01:05.790Z,14.18
2022-11-17T12:03:56.517Z,15.23
2022-11-17T12:06:41.250Z,15.37
2022-11-17T12:09:23.715Z,15.38
2022-11-17T12:12:01.760Z,15.12
2022-11-17T12:14:29.637Z,15.47
2022-11-17T12:17:28.720Z,14.90
2022-11-17T12:19:58.786Z,14.26
2022-11-17T12:22:34.193Z,15.52
2022-11-17T12:25:31.784Z,14.72
2022-11-17T12:27:58.514Z,15.32
2022-11-17T12:30:33.597Z,15.43
2022-11-17T12:33:02.157Z,15.66
2022-11-17T12:35:30.552Z,15.14
2022-11-17T12:38:15.347Z,15.73
2022-11-17T12:40:51.412Z,15.67
2022-11-17T12:43:25.095Z,15.63
2022-11-17T12:46:04.074Z,15.46
2022-11-17T12:48:36.051Z,15.48
2022-11-17T12:51:13.549Z,15.54
2022-11-17T12:54:20.972Z,15.57
2022-11-17T12:56:54.913Z,15.49
2022-11-17T13:00:02.579Z,15.33
2022-11-17T13:02:47.679Z,15.71
2022-11-17T13:05:22.226Z,15.51
2022-11-17T13:07:48.960Z,15.76
2022-11-17T13:10:29.316Z,14.84
2022-11-17T13:13:23.573Z,15.25
2022-11-17T13:16:31.201Z,15.81
2022-11-17T13:23:25.967Z,15.89
2022-11-17T13:26:44.735Z,15.82
2022-11-17T13:30:08.557Z,15.96
2022-11-17T13:33:40.429Z,15.50
2022-11-17T13:37:37.730Z,15.98
2022-11-17T13:48:35.960Z,15.97
2022-11-17T13:54:49.731Z,15.22
2022-11-17T13:57:25.609Z,15.95
2022-11-17T14:00:01.907Z,15.71
2022-11-17T14:02:29.665Z,16.02
2022-11-17T14:05:19.552Z,15.68
2022-11-17T14:07:46.856Z,15.77
2022-11-17T14:10:27.852Z,16.11
2022-11-17T14:13:21.579Z,15.51
2022-11-17T14:15:55.554Z,14.86
2022-11-17T14:18:36.237Z,15.76
2022-11-17T14:21:08.381Z,15.99
2022-11-17T14:23:35.468Z,15.59
2022-11-17T14:26:01.833Z,15.15
2022-11-17T14:28:28.194Z,15.12
2022-11-17T14:30:56.309Z,15.90
2022-11-17T14:33:22.877Z,14.87
2022-11-17T14:35:59.622Z,15.09
2022-11-17T14:38:26.091Z,15.26
2022-11-17T14:40:53.654Z,15.88
2022-11-17T14:43:21.321Z,15.46
2022-11-17T14:45:50.890Z,15.43
2022-11-17T14:48:19.539Z,15.84
2022-11-17T14:50:47.583Z,15.55
2022-11-17T14:53:16.629Z,15.48
2022-11-17T14:55:43.071Z,15.33
2022-11-17T14:58:10.218Z,15.27
2022-11-17T15:00:36.860Z,15.53
2022-11-17T15:03:03.367Z,15.71
2022-11-17T15:05:29.849Z,15.28
2022-11-17T15:07:56.624Z,16.03
2022-11-17T15:10:26.075Z,15.76
2022-11-17T15:12:54.856Z,15.65
2022-11-17T15:15:21.267Z,15.48
2022-11-17T15:17:47.616Z,14.62
2022-11-17T15:20:14.050Z,15.15
2022-11-17T15:22:40.398Z,15.51
2022-11-17T15:25:08.002Z,15.60
2022-11-17T15:27:34.617Z,15.44
2022-11-17T15:30:01.071Z,15.67
2022-11-17T15:32:27.472Z,15.30
2022-11-17T15:34:53.853Z,15.74
2022-11-17T15:37:20.301Z,15.31
2022-11-17T15:39:46.638Z,15.65
2022-11-17T15:42:12.980Z,15.19
2022-11-17T15:44:39.305Z,15.50
2022-11-17T15:47:06.100Z,15.47
2022-11-17T15:49:32.410Z,15.17
2022-11-17T15:51:58.747Z,15.23
2022-11-17T15:54:25.155Z,15.77
2022-11-17T15:56:52.082Z,15.36
2022-11-17T15:59:19.086Z,15.56
2022-11-17T16:01:45.923Z,15.81
2022-11-17T16:04:15.618Z,15.15
2022-11-17T16:06:43.857Z,15.02
2022-11-17T16:09:11.907Z,15.77
2022-11-17T16:11:38.790Z,15.64
2022-11-17T16:14:05.650Z,15.55
2022-11-17T16:16:35.403Z,15.69
2022-11-17T16:19:02.410Z,15.32
2022-11-17T16:21:29.559Z,14.90
2022-11-17T16:23:57.760Z,15.52
2022-11-17T16:26:26.128Z,15.45
2022-11-17T16:28:59.525Z,14.82
2022-11-17T16:31:28.459Z,15.44
2022-11-17T16:33:59.838Z,15.46
2022-11-17T16:36:34.320Z,14.66
2022-11-17T16:39:05.861Z,14.20
2022-11-17T16:41:38.235Z,14.73
2022-11-17T16:44:13.572Z,14.95
2022-11-17T16:46:44.879Z,14.68
2022-11-17T16:49:13.603Z,15.26
2022-11-17T16:51:40.989Z,15.24
2022-11-17T16:54:11.395Z,14.01
2022-11-17T16:56:37.999Z,15.19
2022-11-17T16:59:04.476Z,14.58
2022-11-17T17:01:33.032Z,14.77
2022-11-17T17:04:02.038Z,14.75
2022-11-17T17:06:29.311Z,14.92
2022-11-17T17:09:05.188Z,14.76
2022-11-17T17:11:33.519Z,15.16
2022-11-17T17:14:03.066Z,13.98
2022-11-17T17:16:31.369Z,14.46
2022-11-17T17:19:01.625Z,15.14
2022-11-17T17:21:29.112Z,15.21
2022-11-17T17:23:56.051Z,15.13
2022-11-17T17:26:24.568Z,14.09
2022-11-17T17:28:53.933Z,14.92
2022-11-17T17:31:22.380Z,15.07
2022-11-17T17:33:50.555Z,14.33
2022-11-17T17:36:22.387Z,13.52
2022-11-17T17:38:55.047Z,14.51
2022-11-17T17:41:24.997Z,14.94
2022-11-17T17:44:08.078Z,14.56
2022-11-17T17:46:38.592Z,14.53
2022-11-17T17:49:06.168Z,14.82
2022-11-17T17:51:44.620Z,14.02
2022-11-17T17:54:19.804Z,14.92
2022-11-17T17:56:46.854Z,14.45
2022-11-17T17:59:14.367Z,13.61
2022-11-17T18:01:42.092Z,14.83
2022-11-17T18:04:12.663Z,14.13
2022-11-17T18:06:45.938Z,14.84
2022-11-17T18:09:14.473Z,14.77
2022-11-17T18:11:50.977Z,14.52
2022-11-17T18:14:21.049Z,14.54
2022-11-17T18:16:47.893Z,14.40
2022-11-17T18:19:15.781Z,14.50
2022-11-17T18:21:43.194Z,13.43
2022-11-17T18:24:11.462Z,13.67
2022-11-17T18:26:40.848Z,14.75
2022-11-17T18:29:11.953Z,14.52
2022-11-17T18:31:38.401Z,14.21
2022-11-17T18:34:14.529Z,14.38
2022-11-17T18:36:40.992Z,13.88
2022-11-17T18:39:07.562Z,13.77
2022-11-17T18:41:35.748Z,14.25
2022-11-17T18:44:02.283Z,13.60
2022-11-17T18:46:31.057Z,14.13
2022-11-17T18:48:58.125Z,13.73
2022-11-17T18:51:27.554Z,14.25
2022-11-17T18:53:55.336Z,13.45
2022-11-17T18:56:23.926Z,14.39
2022-11-17T18:58:51.048Z,13.90
2022-11-17T19:01:19.984Z,14.30
2022-11-17T19:03:49.238Z,14.43
2022-11-17T19:06:17.493Z,13.31
2022-11-17T19:08:45.241Z,13.95
2022-11-17T19:11:12.879Z,13.14
2022-11-17T19:13:49.183Z,13.34
2022-11-17T19:16:18.041Z,14.52
2022-11-17T19:18:46.692Z,14.18
2022-11-17T19:21:15.766Z,14.04
2022-11-17T19:23:49.627Z,13.44
2022-11-17T19:26:20.727Z,14.38
2022-11-17T19:28:47.777Z,13.87
2022-11-17T19:31:17.196Z,13.20
2022-11-17T19:33:45.216Z,14.41
2022-11-17T19:36:18.565Z,13.23
2022-11-17T19:38:48.249Z,14.18
2022-11-17T19:41:17.763Z,13.56
2022-11-17T19:43:45.623Z,13.36
2022-11-17T19:46:16.842Z,14.31
2022-11-17T19:48:44.377Z,13.88
2022-11-17T19:51:13.779Z,14.04
2022-11-17T19:53:40.624Z,14.12
2022-11-17T19:56:07.708Z,13.71
2022-11-17T19:58:34.147Z,14.05
2022-11-17T20:01:12.141Z,12.96
2022-11-17T20:03:39.656Z,14.21
2022-11-17T20:06:07.623Z,14.11
2022-11-17T20:08:34.061Z,13.85
2022-11-17T20:11:17.603Z,14.13
2022-11-17T20:13:44.742Z,13.97
2022-11-17T20:16:22.333Z,13.96
2022-11-17T20:18:51.250Z,13.63
2022-11-17T20:21:18.205Z,14.21
2022-11-17T20:23:45.355Z,13.59
2022-11-17T20:26:14.799Z,14.13
2022-11-17T20:28:42.086Z,13.61
2022-11-17T20:31:10.745Z,13.97
2022-11-17T20:33:38.953Z,14.04
2022-11-17T20:36:06.617Z,13.60
2022-11-17T20:38:33.323Z,12.93
2022-11-17T20:41:00.761Z,13.69
2022-11-17T20:43:28.036Z,13.87
2022-11-17T20:45:55.489Z,13.76
2022-11-17T20:48:23.249Z,13.27
2022-11-17T20:51:06.179Z,13.68
2022-11-17T20:53:33.116Z,12.47
2022-11-17T20:56:01.378Z,13.75
2022-11-17T20:58:28.796Z,12.71
2022-11-17T21:00:56.286Z,13.79
2022-11-17T21:03:24.121Z,13.72
2022-11-17T21:05:59.332Z,13.13
2022-11-17T21:08:27.682Z,13.45
2022-11-17T21:11:00.501Z,12.77
2022-11-17T21:13:28.559Z,13.73
2022-11-17T21:16:14.653Z,13.61
2022-11-17T21:18:48.157Z,13.76
2022-11-17T21:21:15.695Z,13.63
2022-11-17T21:23:42.808Z,13.55
2022-11-17T21:26:14.581Z,13.92
2022-11-17T21:28:41.388Z,13.27
2022-11-17T21:31:11.244Z,13.71
2022-11-17T21:33:38.477Z,13.85
2022-11-17T21:36:15.602Z,13.27
2022-11-17T21:38:42.747Z,12.98
2022-11-17T21:41:17.952Z,13.43
2022-11-17T21:43:47.380Z,13.54
2022-11-17T21:46:16.376Z,13.50
2022-11-17T21:48:43.662Z,13.48
2022-11-17T21:51:24.111Z,12.65
2022-11-17T21:53:55.659Z,13.49
2022-11-17T21:56:25.480Z,13.35
2022-11-17T21:58:59.982Z,13.47
2022-11-17T22:01:27.079Z,13.41
2022-11-17T22:03:53.516Z,12.78
2022-11-17T22:06:22.798Z,13.32
2022-11-17T22:08:50.297Z,12.30
2022-11-17T22:11:35.099Z,13.49
2022-11-17T22:14:16.199Z,13.29
2022-11-17T22:16:44.700Z,13.48
2022-11-17T22:19:12.021Z,13.52
2022-11-17T22:21:39.399Z,13.39
2022-11-17T22:24:08.207Z,12.90
2022-11-17T22:26:38.334Z,12.97
2022-11-17T22:29:06.462Z,12.87
2022-11-17T22:31:32.800Z,12.75
2022-11-17T22:33:59.270Z,13.43
2022-11-17T22:36:25.623Z,13.50
2022-11-17T22:38:52.352Z,12.64
2022-11-17T22:41:20.709Z,13.49
2022-11-17T22:43:55.431Z,13.16
2022-11-17T22:46:24.499Z,13.74
2022-11-17T22:48:51.246Z,13.58
2022-11-17T22:51:38.595Z,13.60
2022-11-17T22:54:06.513Z,13.78
2022-11-17T22:56:33.508Z,13.44
2022-11-17T22:59:00.217Z,13.56
2022-11-17T23:01:27.020Z,13.13
2022-11-17T23:03:53.509Z,13.80
2022-11-17T23:06:20.139Z,12.75
2022-11-17T23:08:46.592Z,13.60
2022-11-17T23:11:35.930Z,13.15
2022-11-17T23:13:59.637Z,13.50
2022-11-17T23:16:26.194Z,12.97
2022-11-17T23:18:56.534Z,12.93
2022-11-17T23:21:23.268Z,13.06
2022-11-17T23:23:49.822Z,12.94
2022-11-17T23:26:16.528Z,13.30
2022-11-17T23:28:43.353Z,13.46
2022-11-17T23:31:12.234Z,13.64
2022-11-17T23:33:41.185Z,13.50
2022-11-17T23:36:13.362Z,13.47
2022-11-17T23:38:40.092Z,13.25
2022-11-17T23:41:08.473Z,13.61
2022-11-17T23:43:34.950Z,13.58
2022-11-17T23:46:06.524Z,13.68
2022-11-17T23:48:32.869Z,13.26
2022-11-17T23:51:03.817Z,13.45
2022-11-17T23:53:30.146Z,13.60
2022-11-17T23:55:57.453Z,13.63
2022-11-17T23:58:24.300Z,13.64
